createdAt,value
2018-07-07T00:11:12.967Z,36.8
2018-07-07T00:28:01.899Z,36.8
2018-07-07T00:44:50.849Z,38.0
2018-07-07T01:01:39.614Z,38.4
2018-07-07T01:18:28.330Z,38.8
2018-07-07T01:35:17.235Z,39.2
2018-07-07T01:52:06.116Z,40.0
2018-07-07T02:08:55.103Z,40.0
2018-07-07T02:25:43.592Z,40.8
2018-07-07T02:42:32.219Z,42.0
2018-07-07T02:59:20.773Z,42.4
2018-07-07T03:16:09.388Z,42.8
2018-07-07T03:32:57.969Z,44.0
2018-07-07T03:49:46.640Z,44.0
2018-07-07T04:06:35.059Z,44.8
2018-07-07T04:23:23.416Z,45.6
2018-07-07T04:40:11.627Z,46.0
2018-07-07T04:57:00.000Z,46.4
2018-07-07T05:13:48.475Z,46.8
2018-07-07T05:30:36.753Z,47.6
2018-07-07T05:47:24.820Z,49.6
2018-07-07T06:02:31.680Z,51.6
2018-07-07T06:09:14.474Z,53.2
2018-07-07T06:22:39.344Z,55.6
2018-07-07T06:34:23.421Z,55.2
2018-07-07T06:39:26.519Z,54.4
2018-07-07T06:52:51.262Z,53.2
2018-07-07T07:09:39.158Z,52.4
2018-07-07T07:14:42.071Z,51.6
2018-07-07T07:24:47.186Z,50.4
2018-07-07T07:41:35.332Z,50.8
2018-07-07T07:49:59.635Z,50.4
2018-07-07T08:00:05.279Z,49.6
2018-07-07T08:16:55.044Z,48.0
2018-07-07T08:33:45.184Z,46.4
2018-07-07T08:50:35.286Z,45.6
2018-07-07T09:07:25.322Z,45.2
2018-07-07T09:24:16.201Z,43.6
2018-07-07T09:41:07.003Z,43.2
2018-07-07T09:57:57.836Z,43.6
2018-07-07T10:14:48.853Z,42.8
2018-07-07T10:31:40.226Z,42.8
2018-07-07T10:48:31.596Z,41.6
2018-07-07T11:05:23.036Z,41.2
2018-07-07T11:22:14.723Z,40.8
2018-07-07T11:39:06.550Z,40.8
2018-07-07T11:55:58.506Z,40.8
2018-07-07T12:12:50.837Z,40.4
2018-07-07T12:29:43.308Z,40.4
2018-07-07T12:46:35.873Z,40.0
2018-07-07T13:03:28.665Z,40.0
2018-07-07T13:20:21.595Z,40.0
2018-07-07T13:37:14.380Z,40.0
2018-07-07T13:54:07.369Z,40.8
2018-07-07T14:11:00.432Z,40.4
2018-07-07T14:27:53.655Z,40.4
2018-07-07T14:44:46.830Z,40.4
2018-07-07T15:01:40.124Z,40.4
2018-07-07T15:18:33.395Z,40.4
2018-07-07T15:35:26.836Z,40.4
2018-07-07T15:52:20.325Z,40.4
2018-07-07T16:09:13.628Z,40.4
2018-07-07T16:26:07.290Z,40.8
2018-07-07T16:43:00.256Z,40.8
2018-07-07T16:59:53.321Z,41.2
2018-07-07T17:16:46.458Z,41.2
2018-07-07T17:33:39.641Z,41.6
2018-07-07T17:50:32.670Z,42.0
2018-07-07T18:07:25.290Z,43.2
2018-07-07T18:19:13.951Z,42.0
2018-07-07T18:36:05.713Z,42.4
2018-07-07T18:52:57.340Z,42.8
2018-07-07T19:09:48.768Z,43.2
2018-07-07T19:20:00.498Z,44.0
2018-07-07T19:36:45.843Z,45.2
2018-07-07T19:53:35.803Z,45.2
2018-07-07T20:08:44.717Z,46.8
2018-07-07T20:25:34.143Z,47.6
2018-07-07T20:42:23.219Z,48.0
2018-07-07T20:59:12.629Z,48.0
2018-07-07T21:16:00.625Z,48.0
2018-07-07T21:32:49.041Z,48.8
2018-07-07T21:49:36.625Z,49.2
2018-07-07T22:06:23.883Z,49.6
2018-07-07T22:23:11.323Z,49.6
2018-07-07T22:39:58.981Z,50.0
2018-07-07T22:56:46.692Z,49.6
2018-07-07T23:13:34.564Z,50.0
2018-07-07T23:30:22.652Z,50.0
2018-07-07T23:47:10.236Z,50.8
